VSV783 UACC-UASK
Flight info
| Callsign | VSV783 |
|---|---|
| Flight time | 1h 14m |
| Altitude | 37000 |
| Route | EDANO5G EDANO L994 LIRNA LIRNA1N |
| Aircraft | B738/M-SDE2E3FGHIRWXY/LB1 |
Departure
| Time | 2026-04-24 11:15 |
|---|---|
| Airport | Nursultan Nazarbayev International Airport (UACC) |
Arrival
| Time | 2026-04-24 12:30 |
|---|---|
| Airport | Oskemen International Airport (UASK) |
| Time | Latitude | Longitude | Altitude | Speed | Heading |
|---|---|---|---|---|---|
| 2026-04-24 10:44 | 51.02630 | 71.46156 | 1163 ft | 0 kts | 321° |
| 2026-04-24 10:57 | 51.02621 | 71.46167 | 1162 ft | 2 kts | 324° |
| 2026-04-24 10:58 | 51.02608 | 71.46182 | 1161 ft | 2 kts | 327° |
| 2026-04-24 10:58 | 51.02593 | 71.46195 | 1160 ft | 2 kts | 334° |
| 2026-04-24 10:58 | 51.02578 | 71.46205 | 1161 ft | 2 kts | 348° |
| 2026-04-24 10:58 | 51.02562 | 71.46206 | 1161 ft | 2 kts | 25° |
| 2026-04-24 10:59 | 51.02551 | 71.46194 | 1162 ft | 1 kts | 45° |
| 2026-04-24 10:59 | 51.02551 | 71.46193 | 1162 ft | 0 kts | 45° |
| 2026-04-24 11:02 | 51.02552 | 71.46196 | 1163 ft | 1 kts | 45° |
| 2026-04-24 11:03 | 51.02566 | 71.46218 | 1162 ft | 4 kts | 44° |
| 2026-04-24 11:03 | 51.02593 | 71.46260 | 1163 ft | 7 kts | 44° |
| 2026-04-24 11:03 | 51.02621 | 71.46333 | 1163 ft | 9 kts | 75° |
| 2026-04-24 11:03 | 51.02634 | 71.46443 | 1162 ft | 11 kts | 75° |
| 2026-04-24 11:04 | 51.02690 | 71.46545 | 1163 ft | 14 kts | 47° |
| 2026-04-24 11:04 | 51.02702 | 71.46638 | 1163 ft | 6 kts | 123° |
| 2026-04-24 11:04 | 51.02666 | 71.46691 | 1162 ft | 8 kts | 139° |
| 2026-04-24 11:04 | 51.02650 | 71.46769 | 1163 ft | 8 kts | 63° |
| 2026-04-24 11:05 | 51.02692 | 71.46837 | 1163 ft | 10 kts | 44° |
| 2026-04-24 11:05 | 51.02744 | 71.46919 | 1163 ft | 12 kts | 44° |
| 2026-04-24 11:05 | 51.02811 | 71.47023 | 1163 ft | 15 kts | 44° |
| 2026-04-24 11:05 | 51.02897 | 71.47157 | 1163 ft | 19 kts | 45° |
| 2026-04-24 11:06 | 51.02997 | 71.47312 | 1163 ft | 20 kts | 44° |
| 2026-04-24 11:06 | 51.03094 | 71.47464 | 1163 ft | 19 kts | 44° |
| 2026-04-24 11:06 | 51.03189 | 71.47612 | 1163 ft | 19 kts | 44° |
| 2026-04-24 11:06 | 51.03281 | 71.47755 | 1163 ft | 18 kts | 44° |
| 2026-04-24 11:07 | 51.03424 | 71.48005 | 1161 ft | 12 kts | 72° |
| 2026-04-24 11:07 | 51.03430 | 71.48136 | 1163 ft | 8 kts | 89° |
| 2026-04-24 11:07 | 51.03430 | 71.48147 | 1163 ft | 0 kts | 89° |
| 2026-04-24 11:13 | 51.03430 | 71.48148 | 1163 ft | 1 kts | 89° |
| 2026-04-24 11:13 | 51.03430 | 71.48178 | 1173 ft | 5 kts | 90° |
| 2026-04-24 11:13 | 51.03429 | 71.48243 | 1163 ft | 7 kts | 97° |
| 2026-04-24 11:13 | 51.03403 | 71.48309 | 1163 ft | 8 kts | 137° |
| 2026-04-24 11:14 | 51.03354 | 71.48327 | 1163 ft | 8 kts | 200° |
| 2026-04-24 11:14 | 51.03316 | 71.48276 | 1164 ft | 0 kts | 225° |
| 2026-04-24 11:14 | 51.03309 | 71.48264 | 1164 ft | 9 kts | 225° |
| 2026-04-24 11:15 | 51.03073 | 71.47896 | 1164 ft | 88 kts | 224° |
| 2026-04-24 11:15 | 51.02703 | 71.47316 | 1164 ft | 136 kts | 224° |
| 2026-04-24 11:15 | 51.01888 | 71.46029 | 1271 ft | 189 kts | 224° |
| 2026-04-24 11:15 | 51.00916 | 71.44550 | 2095 ft | 193 kts | 226° |
| 2026-04-24 11:16 | 51.00040 | 71.43244 | 3687 ft | 143 kts | 213° |
| 2026-04-24 11:16 | 50.99223 | 71.42374 | 4243 ft | 165 kts | 227° |
| 2026-04-24 11:16 | 50.98376 | 71.40895 | 4561 ft | 192 kts | 229° |
| 2026-04-24 11:16 | 50.97408 | 71.39219 | 4759 ft | 220 kts | 227° |
| 2026-04-24 11:17 | 50.96316 | 71.37435 | 5292 ft | 228 kts | 221° |
| 2026-04-24 11:17 | 50.94882 | 71.36214 | 5749 ft | 248 kts | 198° |
| 2026-04-24 11:17 | 50.93104 | 71.36000 | 6375 ft | 264 kts | 176° |
| 2026-04-24 11:17 | 50.91558 | 71.36725 | 7111 ft | 269 kts | 159° |
| 2026-04-24 11:18 | 50.90038 | 71.38549 | 7927 ft | 284 kts | 130° |
| 2026-04-24 11:18 | 50.89167 | 71.41404 | 8731 ft | 295 kts | 110° |
| 2026-04-24 11:18 | 50.88624 | 71.44579 | 9535 ft | 301 kts | 109° |
| 2026-04-24 11:18 | 50.88100 | 71.47822 | 10259 ft | 308 kts | 108° |
| 2026-04-24 11:19 | 50.87624 | 71.51256 | 10505 ft | 335 kts | 98° |
| 2026-04-24 11:19 | 50.87808 | 71.55073 | 10684 ft | 363 kts | 78° |
| 2026-04-24 11:19 | 50.88522 | 71.58996 | 11186 ft | 375 kts | 74° |
| 2026-04-24 11:19 | 50.89323 | 71.62960 | 11886 ft | 380 kts | 73° |
| 2026-04-24 11:20 | 50.90146 | 71.66946 | 12660 ft | 382 kts | 73° |
| 2026-04-24 11:20 | 50.90973 | 71.70974 | 13408 ft | 386 kts | 73° |
| 2026-04-24 11:20 | 50.91788 | 71.74996 | 14082 ft | 391 kts | 73° |
| 2026-04-24 11:20 | 50.92612 | 71.79125 | 14738 ft | 394 kts | 74° |
| 2026-04-24 11:21 | 50.93435 | 71.83292 | 15416 ft | 397 kts | 74° |
| 2026-04-24 11:21 | 50.94258 | 71.87488 | 16069 ft | 400 kts | 74° |
| 2026-04-24 11:21 | 50.95085 | 71.91730 | 16711 ft | 404 kts | 74° |
| 2026-04-24 11:21 | 50.95916 | 71.96011 | 17353 ft | 408 kts | 74° |
| 2026-04-24 11:22 | 50.96754 | 72.00336 | 18010 ft | 411 kts | 74° |
| 2026-04-24 11:22 | 50.97595 | 72.04691 | 18614 ft | 414 kts | 74° |
| 2026-04-24 11:22 | 50.98440 | 72.09072 | 19170 ft | 417 kts | 74° |
| 2026-04-24 11:22 | 50.99277 | 72.13423 | 19799 ft | 418 kts | 73° |
| 2026-04-24 11:23 | 51.00128 | 72.17853 | 20317 ft | 422 kts | 73° |
| 2026-04-24 11:23 | 51.00985 | 72.22328 | 20839 ft | 425 kts | 73° |
| 2026-04-24 11:23 | 51.01844 | 72.26829 | 21404 ft | 428 kts | 73° |
| 2026-04-24 11:23 | 51.02709 | 72.31364 | 21953 ft | 430 kts | 73° |
| 2026-04-24 11:24 | 51.03578 | 72.35934 | 22487 ft | 432 kts | 73° |
| 2026-04-24 11:24 | 51.04449 | 72.40529 | 23006 ft | 435 kts | 73° |
| 2026-04-24 11:24 | 51.05325 | 72.45154 | 23498 ft | 438 kts | 73° |
| 2026-04-24 11:24 | 51.06202 | 72.49806 | 23919 ft | 441 kts | 73° |
| 2026-04-24 11:25 | 51.07084 | 72.54488 | 23998 ft | 441 kts | 73° |
| 2026-04-24 11:25 | 51.07951 | 72.59104 | 24008 ft | 441 kts | 73° |
| 2026-04-24 11:25 | 51.08830 | 72.63797 | 24016 ft | 443 kts | 73° |
| 2026-04-24 11:25 | 51.09708 | 72.68497 | 24016 ft | 443 kts | 73° |
| 2026-04-24 11:26 | 51.10583 | 72.73194 | 24013 ft | 443 kts | 73° |
| 2026-04-24 11:26 | 51.11458 | 72.77900 | 24015 ft | 444 kts | 74° |
| 2026-04-24 11:26 | 51.12333 | 72.82620 | 24018 ft | 444 kts | 74° |
| 2026-04-24 11:26 | 51.13208 | 72.87344 | 24011 ft | 444 kts | 74° |
| 2026-04-24 11:27 | 51.14080 | 72.92066 | 24018 ft | 444 kts | 74° |
| 2026-04-24 11:27 | 51.14834 | 72.96833 | 24001 ft | 443 kts | 83° |
| 2026-04-24 11:27 | 51.14859 | 73.01739 | 24138 ft | 445 kts | 95° |
| 2026-04-24 11:27 | 51.14612 | 73.06655 | 24569 ft | 446 kts | 96° |
| 2026-04-24 11:28 | 51.14337 | 73.11575 | 25083 ft | 445 kts | 97° |
| 2026-04-24 11:28 | 51.14063 | 73.16426 | 25501 ft | 447 kts | 96° |
| 2026-04-24 11:28 | 51.13791 | 73.21391 | 25861 ft | 451 kts | 96° |
| 2026-04-24 11:28 | 51.13526 | 73.26383 | 26204 ft | 454 kts | 96° |
| 2026-04-24 11:29 | 51.13266 | 73.31414 | 26578 ft | 456 kts | 96° |
| 2026-04-24 11:29 | 51.13010 | 73.36454 | 26948 ft | 458 kts | 96° |
| 2026-04-24 11:29 | 51.12753 | 73.41535 | 27304 ft | 461 kts | 96° |
| 2026-04-24 11:29 | 51.12495 | 73.46626 | 27650 ft | 463 kts | 96° |
| 2026-04-24 11:30 | 51.12233 | 73.51751 | 27972 ft | 465 kts | 96° |
| 2026-04-24 11:30 | 51.11968 | 73.56896 | 28306 ft | 467 kts | 96° |
| 2026-04-24 11:30 | 51.11698 | 73.62063 | 28629 ft | 470 kts | 96° |
| 2026-04-24 11:30 | 51.11425 | 73.67261 | 28937 ft | 472 kts | 96° |
| 2026-04-24 11:31 | 51.11148 | 73.72478 | 29242 ft | 474 kts | 96° |
| 2026-04-24 11:31 | 51.10871 | 73.77657 | 29538 ft | 476 kts | 96° |
| 2026-04-24 11:31 | 51.10587 | 73.82920 | 29824 ft | 478 kts | 96° |
| 2026-04-24 11:31 | 51.10298 | 73.88209 | 30100 ft | 480 kts | 96° |
| 2026-04-24 11:32 | 51.10007 | 73.93509 | 30357 ft | 481 kts | 96° |
| 2026-04-24 11:32 | 51.09714 | 73.98818 | 30675 ft | 481 kts | 97° |
| 2026-04-24 11:32 | 51.09418 | 74.04113 | 31023 ft | 480 kts | 97° |
| 2026-04-24 11:32 | 51.09121 | 74.09401 | 31347 ft | 479 kts | 97° |
| 2026-04-24 11:33 | 51.08821 | 74.14688 | 31635 ft | 480 kts | 97° |
| 2026-04-24 11:33 | 51.08519 | 74.19966 | 31934 ft | 480 kts | 97° |
| 2026-04-24 11:33 | 51.08214 | 74.25258 | 32246 ft | 479 kts | 97° |
| 2026-04-24 11:33 | 51.07907 | 74.30528 | 32533 ft | 479 kts | 97° |
| 2026-04-24 11:34 | 51.07597 | 74.35813 | 32819 ft | 479 kts | 97° |
| 2026-04-24 11:34 | 51.07286 | 74.41082 | 33111 ft | 479 kts | 97° |
| 2026-04-24 11:34 | 51.06972 | 74.46353 | 33414 ft | 478 kts | 97° |
| 2026-04-24 11:34 | 51.06657 | 74.51614 | 33699 ft | 478 kts | 97° |
| 2026-04-24 11:35 | 51.06343 | 74.56816 | 33968 ft | 478 kts | 97° |
| 2026-04-24 11:35 | 51.06022 | 74.62074 | 34201 ft | 478 kts | 97° |
| 2026-04-24 11:35 | 51.05699 | 74.67343 | 34400 ft | 479 kts | 97° |
| 2026-04-24 11:35 | 51.05373 | 74.72619 | 34584 ft | 480 kts | 97° |
| 2026-04-24 11:36 | 51.05044 | 74.77903 | 34785 ft | 480 kts | 97° |
| 2026-04-24 11:36 | 51.04713 | 74.83182 | 34989 ft | 481 kts | 97° |
| 2026-04-24 11:36 | 51.04378 | 74.88478 | 35169 ft | 481 kts | 97° |
| 2026-04-24 11:36 | 51.04041 | 74.93780 | 35357 ft | 482 kts | 97° |
| 2026-04-24 11:37 | 51.03700 | 74.99088 | 35549 ft | 482 kts | 97° |
| 2026-04-24 11:37 | 51.03358 | 75.04394 | 35732 ft | 483 kts | 98° |
| 2026-04-24 11:37 | 51.03013 | 75.09703 | 35913 ft | 484 kts | 98° |
| 2026-04-24 11:37 | 51.02664 | 75.15027 | 36088 ft | 484 kts | 98° |
| 2026-04-24 11:38 | 51.02313 | 75.20345 | 36266 ft | 485 kts | 98° |
| 2026-04-24 11:38 | 51.01959 | 75.25678 | 36440 ft | 485 kts | 98° |
| 2026-04-24 11:38 | 51.01602 | 75.31016 | 36604 ft | 486 kts | 98° |
| 2026-04-24 11:38 | 51.01243 | 75.36351 | 36775 ft | 486 kts | 98° |
| 2026-04-24 11:39 | 51.00881 | 75.41690 | 36951 ft | 486 kts | 98° |
| 2026-04-24 11:39 | 51.00520 | 75.46969 | 37029 ft | 488 kts | 98° |
| 2026-04-24 11:39 | 50.99778 | 75.57730 | 37029 ft | 489 kts | 98° |
| 2026-04-24 11:40 | 50.99031 | 75.68429 | 37026 ft | 486 kts | 98° |
| 2026-04-24 11:40 | 50.98280 | 75.79040 | 37027 ft | 483 kts | 98° |
| 2026-04-24 11:41 | 50.97522 | 75.89595 | 37032 ft | 481 kts | 98° |
| 2026-04-24 11:41 | 50.96755 | 76.00145 | 37032 ft | 480 kts | 99° |
| 2026-04-24 11:42 | 50.95978 | 76.10695 | 37042 ft | 481 kts | 99° |
| 2026-04-24 11:42 | 50.95193 | 76.21219 | 37042 ft | 484 kts | 99° |
| 2026-04-24 11:43 | 50.94390 | 76.31856 | 37047 ft | 486 kts | 99° |
| 2026-04-24 11:43 | 50.93581 | 76.42456 | 37043 ft | 488 kts | 99° |
| 2026-04-24 11:44 | 50.92755 | 76.53160 | 37040 ft | 490 kts | 99° |
| 2026-04-24 11:44 | 50.91726 | 76.63850 | 37047 ft | 489 kts | 104° |
| 2026-04-24 11:45 | 50.90219 | 76.74380 | 37036 ft | 490 kts | 106° |
| 2026-04-24 11:45 | 50.88662 | 76.84887 | 37044 ft | 490 kts | 105° |
| 2026-04-24 11:46 | 50.87142 | 76.95403 | 37044 ft | 489 kts | 105° |
| 2026-04-24 11:46 | 50.85650 | 77.05831 | 37042 ft | 488 kts | 105° |
| 2026-04-24 11:47 | 50.84142 | 77.16297 | 37048 ft | 487 kts | 105° |
| 2026-04-24 11:47 | 50.82628 | 77.26721 | 37044 ft | 486 kts | 105° |
| 2026-04-24 11:48 | 50.81108 | 77.37116 | 37054 ft | 485 kts | 105° |
| 2026-04-24 11:48 | 50.79579 | 77.47484 | 37053 ft | 484 kts | 105° |
| 2026-04-24 11:49 | 50.78043 | 77.57840 | 37054 ft | 483 kts | 106° |
| 2026-04-24 11:49 | 50.76502 | 77.68167 | 37053 ft | 483 kts | 106° |
| 2026-04-24 11:50 | 50.74950 | 77.78502 | 37055 ft | 483 kts | 106° |
| 2026-04-24 11:50 | 50.73390 | 77.88828 | 37057 ft | 484 kts | 106° |
| 2026-04-24 11:51 | 50.71819 | 77.99155 | 37059 ft | 484 kts | 106° |
| 2026-04-24 11:51 | 50.70248 | 78.09429 | 37060 ft | 485 kts | 106° |
| 2026-04-24 11:52 | 50.68654 | 78.19781 | 37063 ft | 486 kts | 106° |
| 2026-04-24 11:52 | 50.67042 | 78.30148 | 37063 ft | 487 kts | 107° |
| 2026-04-24 11:53 | 50.65421 | 78.40514 | 37068 ft | 487 kts | 107° |
| 2026-04-24 11:53 | 50.63791 | 78.50885 | 37070 ft | 488 kts | 107° |
| 2026-04-24 11:54 | 50.62149 | 78.61266 | 37076 ft | 488 kts | 107° |
| 2026-04-24 11:54 | 50.60496 | 78.71650 | 37075 ft | 488 kts | 107° |
| 2026-04-24 11:55 | 50.58836 | 78.82020 | 37086 ft | 488 kts | 107° |
| 2026-04-24 11:55 | 50.57166 | 78.92383 | 37082 ft | 488 kts | 107° |
| 2026-04-24 11:56 | 50.55489 | 79.02729 | 37088 ft | 488 kts | 107° |
| 2026-04-24 11:56 | 50.53813 | 79.13008 | 37099 ft | 488 kts | 107° |
| 2026-04-24 11:57 | 50.52117 | 79.23339 | 37101 ft | 488 kts | 107° |
| 2026-04-24 11:57 | 50.50410 | 79.33667 | 37104 ft | 488 kts | 107° |
| 2026-04-24 11:58 | 50.48708 | 79.43911 | 37110 ft | 487 kts | 107° |
| 2026-04-24 11:58 | 50.46989 | 79.54203 | 37111 ft | 487 kts | 108° |
| 2026-04-24 11:59 | 50.45260 | 79.64494 | 37112 ft | 487 kts | 108° |
| 2026-04-24 11:59 | 50.43520 | 79.74787 | 37114 ft | 487 kts | 108° |
| 2026-04-24 12:00 | 50.41771 | 79.85074 | 37110 ft | 488 kts | 108° |
| 2026-04-24 12:00 | 50.40888 | 79.90237 | 36790 ft | 493 kts | 108° |
| 2026-04-24 12:00 | 50.40007 | 79.95377 | 36273 ft | 493 kts | 108° |
| 2026-04-24 12:01 | 50.39119 | 80.00549 | 35657 ft | 492 kts | 108° |
| 2026-04-24 12:01 | 50.38227 | 80.05733 | 35023 ft | 491 kts | 108° |
| 2026-04-24 12:01 | 50.37331 | 80.10917 | 34369 ft | 491 kts | 108° |
| 2026-04-24 12:01 | 50.36437 | 80.16085 | 33614 ft | 491 kts | 108° |
| 2026-04-24 12:02 | 50.35839 | 80.19525 | 33113 ft | 491 kts | 108° |
| 2026-04-24 12:02 | 50.34963 | 80.24688 | 32400 ft | 491 kts | 106° |
| 2026-04-24 12:02 | 50.34216 | 80.29871 | 31973 ft | 484 kts | 104° |
| 2026-04-24 12:02 | 50.33343 | 80.36692 | 31305 ft | 479 kts | 103° |
| 2026-04-24 12:03 | 50.32715 | 80.41792 | 30817 ft | 474 kts | 103° |
| 2026-04-24 12:03 | 50.32292 | 80.45205 | 30496 ft | 471 kts | 103° |
| 2026-04-24 12:03 | 50.31669 | 80.50147 | 29994 ft | 467 kts | 103° |
| 2026-04-24 12:03 | 50.31032 | 80.55101 | 29450 ft | 462 kts | 103° |
| 2026-04-24 12:04 | 50.30393 | 80.59991 | 28973 ft | 456 kts | 103° |
| 2026-04-24 12:04 | 50.29756 | 80.64813 | 28493 ft | 450 kts | 104° |
| 2026-04-24 12:04 | 50.29123 | 80.69574 | 28004 ft | 444 kts | 104° |
| 2026-04-24 12:04 | 50.28494 | 80.74283 | 27538 ft | 439 kts | 104° |
| 2026-04-24 12:05 | 50.27870 | 80.78938 | 27060 ft | 435 kts | 104° |
| 2026-04-24 12:05 | 50.27277 | 80.83353 | 26602 ft | 430 kts | 104° |
| 2026-04-24 12:05 | 50.27254 | 80.83524 | 26587 ft | 430 kts | 104° |
| 2026-04-24 12:05 | 50.27184 | 80.84043 | 26539 ft | 430 kts | 104° |
| 2026-04-24 12:06 | 50.26571 | 80.88594 | 26066 ft | 425 kts | 103° |
| 2026-04-24 12:06 | 50.25964 | 80.93090 | 25609 ft | 421 kts | 103° |
| 2026-04-24 12:06 | 50.25361 | 80.97543 | 25155 ft | 416 kts | 103° |
| 2026-04-24 12:06 | 50.25004 | 81.00169 | 24888 ft | 414 kts | 103° |
| 2026-04-24 12:07 | 50.24572 | 81.03349 | 24561 ft | 411 kts | 103° |
| 2026-04-24 12:07 | 50.23979 | 81.07692 | 24118 ft | 407 kts | 103° |
| 2026-04-24 12:07 | 50.23390 | 81.11997 | 23671 ft | 403 kts | 103° |
| 2026-04-24 12:08 | 50.22805 | 81.16260 | 23145 ft | 399 kts | 103° |
| 2026-04-24 12:08 | 50.22227 | 81.20468 | 22696 ft | 394 kts | 103° |
| 2026-04-24 12:08 | 50.21653 | 81.24630 | 22239 ft | 390 kts | 103° |
| 2026-04-24 12:08 | 50.21084 | 81.28746 | 21789 ft | 386 kts | 103° |
| 2026-04-24 12:09 | 50.20520 | 81.32814 | 21355 ft | 382 kts | 103° |
| 2026-04-24 12:09 | 50.19801 | 81.36747 | 21113 ft | 372 kts | 115° |
| 2026-04-24 12:09 | 50.18426 | 81.40117 | 20703 ft | 366 kts | 128° |
| 2026-04-24 12:09 | 50.16864 | 81.43235 | 20282 ft | 364 kts | 129° |
| 2026-04-24 12:10 | 50.15293 | 81.46313 | 19863 ft | 362 kts | 129° |
| 2026-04-24 12:10 | 50.13731 | 81.49376 | 19449 ft | 360 kts | 129° |
| 2026-04-24 12:10 | 50.12184 | 81.52426 | 19039 ft | 358 kts | 128° |
| 2026-04-24 12:11 | 50.09126 | 81.58498 | 18196 ft | 355 kts | 128° |
| 2026-04-24 12:11 | 50.07611 | 81.61517 | 17740 ft | 353 kts | 128° |
| 2026-04-24 12:11 | 50.06102 | 81.64522 | 17317 ft | 350 kts | 128° |
| 2026-04-24 12:11 | 50.04606 | 81.67502 | 16902 ft | 348 kts | 128° |
| 2026-04-24 12:12 | 50.03120 | 81.70459 | 16491 ft | 346 kts | 128° |
| 2026-04-24 12:12 | 50.01169 | 81.74338 | 15964 ft | 343 kts | 128° |
| 2026-04-24 12:12 | 50.00176 | 81.76309 | 15692 ft | 342 kts | 128° |
| 2026-04-24 12:12 | 49.98714 | 81.79209 | 15306 ft | 340 kts | 128° |
| 2026-04-24 12:13 | 49.97259 | 81.82094 | 14947 ft | 337 kts | 128° |
| 2026-04-24 12:13 | 49.95849 | 81.84886 | 14817 ft | 328 kts | 128° |
| 2026-04-24 12:13 | 49.94460 | 81.87632 | 14662 ft | 319 kts | 128° |
| 2026-04-24 12:13 | 49.93104 | 81.90308 | 14522 ft | 311 kts | 128° |
| 2026-04-24 12:14 | 49.91800 | 81.92931 | 14359 ft | 304 kts | 123° |
| 2026-04-24 12:14 | 49.90755 | 81.95761 | 14055 ft | 302 kts | 116° |
| 2026-04-24 12:14 | 49.89847 | 81.98686 | 13748 ft | 300 kts | 114° |
| 2026-04-24 12:14 | 49.88958 | 82.01615 | 13419 ft | 299 kts | 115° |
| 2026-04-24 12:15 | 49.88064 | 82.04513 | 13099 ft | 297 kts | 115° |
| 2026-04-24 12:15 | 49.87172 | 82.07349 | 12784 ft | 295 kts | 116° |
| 2026-04-24 12:15 | 49.86264 | 82.10194 | 12482 ft | 294 kts | 116° |
| 2026-04-24 12:15 | 49.85350 | 82.13030 | 12183 ft | 292 kts | 116° |
| 2026-04-24 12:16 | 49.84440 | 82.15839 | 11870 ft | 291 kts | 116° |
| 2026-04-24 12:16 | 49.83535 | 82.18632 | 11563 ft | 290 kts | 116° |
| 2026-04-24 12:16 | 49.82632 | 82.21413 | 11260 ft | 289 kts | 116° |
| 2026-04-24 12:16 | 49.81730 | 82.24186 | 10954 ft | 287 kts | 116° |
| 2026-04-24 12:17 | 49.80834 | 82.26941 | 10662 ft | 286 kts | 116° |
| 2026-04-24 12:17 | 49.79934 | 82.29704 | 10371 ft | 285 kts | 117° |
| 2026-04-24 12:17 | 49.79051 | 82.32412 | 10242 ft | 278 kts | 117° |
| 2026-04-24 12:17 | 49.78187 | 82.35061 | 10057 ft | 273 kts | 117° |
| 2026-04-24 12:18 | 49.77328 | 82.37693 | 9673 ft | 275 kts | 117° |
| 2026-04-24 12:18 | 49.76469 | 82.40321 | 9372 ft | 274 kts | 117° |
| 2026-04-24 12:18 | 49.75612 | 82.42943 | 9074 ft | 273 kts | 117° |
| 2026-04-24 12:18 | 49.74758 | 82.45554 | 8790 ft | 271 kts | 117° |
| 2026-04-24 12:19 | 49.73915 | 82.48122 | 8509 ft | 270 kts | 117° |
| 2026-04-24 12:19 | 49.73070 | 82.50696 | 8225 ft | 268 kts | 117° |
| 2026-04-24 12:19 | 49.72269 | 82.53305 | 7940 ft | 268 kts | 108° |
| 2026-04-24 12:19 | 49.72146 | 82.56159 | 7656 ft | 268 kts | 79° |
| 2026-04-24 12:20 | 49.72901 | 82.58770 | 7385 ft | 268 kts | 53° |
| 2026-04-24 12:20 | 49.74229 | 82.60789 | 7119 ft | 267 kts | 41° |
| 2026-04-24 12:20 | 49.75653 | 82.62629 | 6834 ft | 267 kts | 41° |
| 2026-04-24 12:20 | 49.77080 | 82.64482 | 6549 ft | 267 kts | 41° |
| 2026-04-24 12:21 | 49.78482 | 82.66325 | 6252 ft | 267 kts | 41° |
| 2026-04-24 12:21 | 49.79890 | 82.68188 | 5966 ft | 266 kts | 41° |
| 2026-04-24 12:21 | 49.81294 | 82.70054 | 5682 ft | 265 kts | 41° |
| 2026-04-24 12:21 | 49.82693 | 82.71916 | 5418 ft | 264 kts | 41° |
| 2026-04-24 12:22 | 49.84068 | 82.73750 | 5292 ft | 258 kts | 41° |
| 2026-04-24 12:22 | 49.85412 | 82.75545 | 5170 ft | 251 kts | 41° |
| 2026-04-24 12:22 | 49.86717 | 82.77286 | 5051 ft | 241 kts | 42° |
| 2026-04-24 12:22 | 49.87939 | 82.78920 | 4883 ft | 225 kts | 41° |
| 2026-04-24 12:23 | 49.89076 | 82.80442 | 4812 ft | 205 kts | 41° |
| 2026-04-24 12:23 | 49.90104 | 82.81817 | 4779 ft | 189 kts | 41° |
| 2026-04-24 12:23 | 49.91117 | 82.83175 | 4531 ft | 195 kts | 41° |
| 2026-04-24 12:23 | 49.92194 | 82.84422 | 4292 ft | 190 kts | 20° |
| 2026-04-24 12:24 | 49.93492 | 82.84386 | 3752 ft | 197 kts | 330° |
| 2026-04-24 12:24 | 49.94322 | 82.82820 | 3455 ft | 194 kts | 287° |
| 2026-04-24 12:24 | 49.94407 | 82.80788 | 3334 ft | 182 kts | 264° |
| 2026-04-24 12:24 | 49.94208 | 82.78825 | 3320 ft | 184 kts | 261° |
| 2026-04-24 12:25 | 49.93947 | 82.76874 | 3201 ft | 186 kts | 258° |
| 2026-04-24 12:25 | 49.93680 | 82.74913 | 2983 ft | 186 kts | 259° |
| 2026-04-24 12:25 | 49.93490 | 82.72939 | 2752 ft | 181 kts | 272° |
| 2026-04-24 12:25 | 49.93745 | 82.71109 | 2625 ft | 169 kts | 289° |
| 2026-04-24 12:26 | 49.94090 | 82.69435 | 2689 ft | 164 kts | 287° |
| 2026-04-24 12:26 | 49.94421 | 82.67708 | 2750 ft | 169 kts | 286° |
| 2026-04-24 12:26 | 49.94745 | 82.65938 | 2718 ft | 172 kts | 288° |
| 2026-04-24 12:26 | 49.95200 | 82.64224 | 2608 ft | 171 kts | 301° |
| 2026-04-24 12:27 | 49.95922 | 82.62814 | 2573 ft | 164 kts | 314° |
| 2026-04-24 12:27 | 49.96741 | 82.61541 | 2470 ft | 170 kts | 314° |
| 2026-04-24 12:27 | 49.97595 | 82.60208 | 2372 ft | 176 kts | 314° |
| 2026-04-24 12:27 | 49.98398 | 82.58819 | 2228 ft | 168 kts | 310° |
| 2026-04-24 12:28 | 49.99141 | 82.57449 | 2040 ft | 161 kts | 310° |
| 2026-04-24 12:28 | 49.99838 | 82.56212 | 1947 ft | 147 kts | 309° |
| 2026-04-24 12:28 | 50.00503 | 82.55004 | 1710 ft | 146 kts | 310° |
| 2026-04-24 12:28 | 50.01179 | 82.53830 | 1486 ft | 145 kts | 310° |
| 2026-04-24 12:29 | 50.01839 | 82.52639 | 1283 ft | 146 kts | 310° |
| 2026-04-24 12:29 | 50.02498 | 82.51458 | 1091 ft | 145 kts | 309° |
| 2026-04-24 12:29 | 50.03146 | 82.50279 | 953 ft | 137 kts | 309° |
| 2026-04-24 12:29 | 50.03718 | 82.49224 | 930 ft | 119 kts | 310° |
| 2026-04-24 12:30 | 50.04138 | 82.48513 | 929 ft | 47 kts | 312° |
| 2026-04-24 12:30 | 50.04307 | 82.48207 | 931 ft | 25 kts | 310° |
| 2026-04-24 12:30 | 50.04366 | 82.48039 | 932 ft | 10 kts | 259° |
| 2026-04-24 12:30 | 50.04357 | 82.48023 | 932 ft | 1 kts | 187° |
| 2026-04-24 12:31 | 50.04350 | 82.48035 | 933 ft | 2 kts | 120° |
| 2026-04-24 12:31 | 50.04344 | 82.48054 | 932 ft | 2 kts | 117° |
| 2026-04-24 12:31 | 50.04330 | 82.48103 | 931 ft | 8 kts | 111° |
| 2026-04-24 12:31 | 50.04300 | 82.48202 | 932 ft | 13 kts | 129° |
| 2026-04-24 12:32 | 50.04231 | 82.48328 | 931 ft | 18 kts | 130° |
| 2026-04-24 12:32 | 50.04135 | 82.48506 | 929 ft | 24 kts | 131° |
| 2026-04-24 12:32 | 50.04017 | 82.48714 | 929 ft | 28 kts | 131° |
| 2026-04-24 12:32 | 50.03887 | 82.48949 | 931 ft | 29 kts | 131° |
| 2026-04-24 12:33 | 50.03756 | 82.49188 | 931 ft | 31 kts | 130° |
| 2026-04-24 12:33 | 50.03607 | 82.49455 | 929 ft | 35 kts | 131° |
| 2026-04-24 12:33 | 50.03459 | 82.49723 | 931 ft | 30 kts | 131° |
| 2026-04-24 12:33 | 50.03326 | 82.49962 | 931 ft | 28 kts | 131° |
| 2026-04-24 12:34 | 50.03201 | 82.50182 | 933 ft | 27 kts | 132° |
| 2026-04-24 12:34 | 50.03158 | 82.50235 | 930 ft | 4 kts | 168° |
| 2026-04-24 12:34 | 50.03128 | 82.50221 | 931 ft | 5 kts | 216° |
| 2026-04-24 12:34 | 50.03089 | 82.50172 | 931 ft | 9 kts | 221° |
| 2026-04-24 12:35 | 50.03035 | 82.50127 | 932 ft | 8 kts | 167° |
| 2026-04-24 12:35 | 50.02987 | 82.50193 | 932 ft | 11 kts | 130° |
| 2026-04-24 12:35 | 50.02925 | 82.50305 | 931 ft | 16 kts | 130° |
| 2026-04-24 12:35 | 50.02846 | 82.50452 | 933 ft | 20 kts | 130° |
| 2026-04-24 12:36 | 50.02759 | 82.50607 | 931 ft | 12 kts | 131° |
| 2026-04-24 12:36 | 50.02736 | 82.50646 | 931 ft | 4 kts | 133° |
| 2026-04-24 12:36 | 50.02718 | 82.50679 | 932 ft | 4 kts | 131° |
| 2026-04-24 12:36 | 50.02707 | 82.50698 | 934 ft | 0 kts | 131° |